sensor_id;sensor_type;location;lat;lon;timestamp;P1;durP1;ratioP1;P2;durP2;ratioP2
18455;SDS011;9357;49.900;8.208;2024-03-29T00:00:49;2.97;;;2.07;;
18455;SDS011;9357;49.900;8.208;2024-03-29T00:02:20;4.65;;;2.13;;
18455;SDS011;9357;49.900;8.208;2024-03-29T00:03:51;4.40;;;2.50;;
18455;SDS011;9357;49.900;8.208;2024-03-29T00:05:22;5.47;;;2.50;;
18455;SDS011;9357;49.900;8.208;2024-03-29T00:06:53;5.30;;;2.10;;
18455;SDS011;9357;49.900;8.208;2024-03-29T00:08:24;5.23;;;2.33;;
18455;SDS011;9357;49.900;8.208;2024-03-29T00:09:55;4.27;;;2.27;;
18455;SDS011;9357;49.900;8.208;2024-03-29T00:11:26;4.60;;;2.30;;
18455;SDS011;9357;49.900;8.208;2024-03-29T00:12:57;3.80;;;2.28;;
18455;SDS011;9357;49.900;8.208;2024-03-29T00:14:29;5.07;;;2.90;;
18455;SDS011;9357;49.900;8.208;2024-03-29T00:16:03;2.65;;;1.80;;
18455;SDS011;9357;49.900;8.208;2024-03-29T00:17:34;6.00;;;3.00;;
18455;SDS011;9357;49.900;8.208;2024-03-29T00:19:05;5.23;;;2.60;;
18455;SDS011;9357;49.900;8.208;2024-03-29T00:20:36;4.50;;;2.53;;
18455;SDS011;9357;49.900;8.208;2024-03-29T00:22:07;3.27;;;1.90;;
18455;SDS011;9357;49.900;8.208;2024-03-29T00:23:38;3.35;;;2.00;;
18455;SDS011;9357;49.900;8.208;2024-03-29T00:25:09;2.83;;;2.27;;
18455;SDS011;9357;49.900;8.208;2024-03-29T00:26:40;4.80;;;2.10;;
18455;SDS011;9357;49.900;8.208;2024-03-29T00:28:11;5.97;;;2.33;;
18455;SDS011;9357;49.900;8.208;2024-03-29T00:29:42;3.73;;;2.07;;
18455;SDS011;9357;49.900;8.208;2024-03-29T00:31:14;4.68;;;2.25;;
18455;SDS011;9357;49.900;8.208;2024-03-29T00:32:45;7.18;;;3.45;;
18455;SDS011;9357;49.900;8.208;2024-03-29T00:34:16;5.63;;;2.80;;
18455;SDS011;9357;49.900;8.208;2024-03-29T00:35:47;4.53;;;2.37;;
18455;SDS011;9357;49.900;8.208;2024-03-29T00:37:18;7.10;;;2.50;;
18455;SDS011;9357;49.900;8.208;2024-03-29T00:38:49;3.80;;;2.50;;
18455;SDS011;9357;49.900;8.208;2024-03-29T00:40:20;7.10;;;3.87;;
18455;SDS011;9357;49.900;8.208;2024-03-29T00:41:51;4.60;;;2.40;;
18455;SDS011;9357;49.900;8.208;2024-03-29T00:43:22;6.20;;;2.60;;
18455;SDS011;9357;49.900;8.208;2024-03-29T00:44:53;4.45;;;2.20;;
18455;SDS011;9357;49.900;8.208;2024-03-29T00:46:25;3.57;;;2.30;;
18455;SDS011;9357;49.900;8.208;2024-03-29T00:47:56;4.47;;;2.33;;
18455;SDS011;9357;49.900;8.208;2024-03-29T00:49:27;5.47;;;2.63;;
18455;SDS011;9357;49.900;8.208;2024-03-29T00:50:58;3.00;;;1.97;;
18455;SDS011;9357;49.900;8.208;2024-03-29T00:52:29;4.07;;;2.80;;
18455;SDS011;9357;49.900;8.208;2024-03-29T00:54:00;6.63;;;3.40;;
18455;SDS011;9357;49.900;8.208;2024-03-29T00:55:31;4.30;;;2.67;;
18455;SDS011;9357;49.900;8.208;2024-03-29T00:57:02;7.30;;;2.60;;
18455;SDS011;9357;49.900;8.208;2024-03-29T00:58:33;8.48;;;4.50;;
18455;SDS011;9357;49.900;8.208;2024-03-29T01:00:04;9.97;;;5.10;;
18455;SDS011;9357;49.900;8.208;2024-03-29T01:01:37;8.27;;;3.70;;
18455;SDS011;9357;49.900;8.208;2024-03-29T01:03:08;4.50;;;2.13;;
18455;SDS011;9357;49.900;8.208;2024-03-29T01:04:39;3.57;;;2.47;;
18455;SDS011;9357;49.900;8.208;2024-03-29T01:06:10;5.57;;;2.60;;
18455;SDS011;9357;49.900;8.208;2024-03-29T01:07:41;3.20;;;2.17;;
18455;SDS011;9357;49.900;8.208;2024-03-29T01:09:12;4.90;;;2.20;;
18455;SDS011;9357;49.900;8.208;2024-03-29T01:10:43;4.78;;;2.10;;
18455;SDS011;9357;49.900;8.208;2024-03-29T01:12:14;3.57;;;2.10;;
18455;SDS011;9357;49.900;8.208;2024-03-29T01:13:45;8.47;;;3.80;;
18455;SDS011;9357;49.900;8.208;2024-03-29T01:15:16;6.73;;;3.30;;
18455;SDS011;9357;49.900;8.208;2024-03-29T01:16:48;4.05;;;2.30;;
18455;SDS011;9357;49.900;8.208;2024-03-29T01:18:19;5.97;;;2.95;;
18455;SDS011;9357;49.900;8.208;2024-03-29T01:19:50;4.57;;;2.60;;
18455;SDS011;9357;49.900;8.208;2024-03-29T01:21:21;5.97;;;3.10;;
18455;SDS011;9357;49.900;8.208;2024-03-29T01:22:52;4.83;;;2.87;;
18455;SDS011;9357;49.900;8.208;2024-03-29T01:24:23;5.30;;;2.97;;
18455;SDS011;9357;49.900;8.208;2024-03-29T01:25:54;3.57;;;2.47;;
18455;SDS011;9357;49.900;8.208;2024-03-29T01:27:25;4.20;;;2.40;;
18455;SDS011;9357;49.900;8.208;2024-03-29T01:28:56;4.10;;;2.33;;
18455;SDS011;9357;49.900;8.208;2024-03-29T01:30:27;5.20;;;2.33;;
18455;SDS011;9357;49.900;8.208;2024-03-29T01:31:59;3.67;;;2.40;;
18455;SDS011;9357;49.900;8.208;2024-03-29T01:33:30;2.55;;;2.00;;
18455;SDS011;9357;49.900;8.208;2024-03-29T01:35:02;4.57;;;2.50;;
18455;SDS011;9357;49.900;8.208;2024-03-29T01:36:33;4.90;;;2.38;;
18455;SDS011;9357;49.900;8.208;2024-03-29T01:38:04;3.23;;;2.13;;
18455;SDS011;9357;49.900;8.208;2024-03-29T01:39:35;3.67;;;2.23;;
18455;SDS011;9357;49.900;8.208;2024-03-29T01:41:06;3.30;;;2.37;;
18455;SDS011;9357;49.900;8.208;2024-03-29T01:42:37;5.23;;;2.53;;
18455;SDS011;9357;49.900;8.208;2024-03-29T01:44:08;4.27;;;2.40;;
18455;SDS011;9357;49.900;8.208;2024-03-29T01:45:40;5.97;;;2.47;;
18455;SDS011;9357;49.900;8.208;2024-03-29T01:47:13;5.28;;;2.42;;
18455;SDS011;9357;49.900;8.208;2024-03-29T01:48:45;4.00;;;2.30;;
18455;SDS011;9357;49.900;8.208;2024-03-29T01:50:16;3.73;;;2.37;;
18455;SDS011;9357;49.900;8.208;2024-03-29T01:51:48;4.60;;;2.53;;
18455;SDS011;9357;49.900;8.208;2024-03-29T01:53:19;4.28;;;2.33;;
18455;SDS011;9357;49.900;8.208;2024-03-29T01:54:52;4.93;;;2.40;;
18455;SDS011;9357;49.900;8.208;2024-03-29T01:56:23;6.43;;;2.30;;
18455;SDS011;9357;49.900;8.208;2024-03-29T01:57:55;4.50;;;2.35;;
18455;SDS011;9357;49.900;8.208;2024-03-29T01:59:27;4.43;;;2.42;;
18455;SDS011;9357;49.900;8.208;2024-03-29T02:01:00;3.20;;;2.17;;
18455;SDS011;9357;49.900;8.208;2024-03-29T02:02:32;2.15;;;1.95;;
18455;SDS011;9357;49.900;8.208;2024-03-29T02:04:04;2.63;;;1.85;;
18455;SDS011;9357;49.900;8.208;2024-03-29T02:05:35;3.97;;;2.17;;
18455;SDS011;9357;49.900;8.208;2024-03-29T02:07:08;3.10;;;1.85;;
18455;SDS011;9357;49.900;8.208;2024-03-29T02:08:39;2.93;;;1.67;;
18455;SDS011;9357;49.900;8.208;2024-03-29T02:10:10;5.63;;;2.00;;
18455;SDS011;9357;49.900;8.208;2024-03-29T02:11:43;3.67;;;1.90;;
18455;SDS011;9357;49.900;8.208;2024-03-29T02:13:15;4.05;;;2.15;;
18455;SDS011;9357;49.900;8.208;2024-03-29T02:14:46;3.67;;;1.80;;
18455;SDS011;9357;49.900;8.208;2024-03-29T02:16:17;4.05;;;2.13;;
18455;SDS011;9357;49.900;8.208;2024-03-29T02:17:50;4.47;;;2.00;;
18455;SDS011;9357;49.900;8.208;2024-03-29T02:19:22;2.80;;;1.95;;
18455;SDS011;9357;49.900;8.208;2024-03-29T02:20:52;3.53;;;1.80;;
18455;SDS011;9357;49.900;8.208;2024-03-29T02:22:24;2.95;;;1.95;;
18455;SDS011;9357;49.900;8.208;2024-03-29T02:24:00;2.55;;;1.90;;
18455;SDS011;9357;49.900;8.208;2024-03-29T02:25:36;1.80;;;1.65;;
18455;SDS011;9357;49.900;8.208;2024-03-29T02:27:07;3.22;;;1.85;;
18455;SDS011;9357;49.900;8.208;2024-03-29T02:28:39;2.28;;;1.90;;
18455;SDS011;9357;49.900;8.208;2024-03-29T02:30:12;2.27;;;2.00;;
18455;SDS011;9357;49.900;8.208;2024-03-29T02:31:44;2.95;;;1.83;;
18455;SDS011;9357;49.900;8.208;2024-03-29T02:33:16;2.78;;;1.85;;
18455;SDS011;9357;49.900;8.208;2024-03-29T02:34:47;5.05;;;1.83;;
18455;SDS011;9357;49.900;8.208;2024-03-29T02:36:19;2.80;;;2.00;;
18455;SDS011;9357;49.900;8.208;2024-03-29T02:37:50;2.73;;;1.60;;
18455;SDS011;9357;49.900;8.208;2024-03-29T02:39:23;2.90;;;1.67;;
18455;SDS011;9357;49.900;8.208;2024-03-29T02:40:54;2.55;;;1.90;;
18455;SDS011;9357;49.900;8.208;2024-03-29T02:42:26;4.07;;;1.98;;
18455;SDS011;9357;49.900;8.208;2024-03-29T02:43:57;3.67;;;1.80;;
18455;SDS011;9357;49.900;8.208;2024-03-29T02:45:29;2.97;;;2.00;;
18455;SDS011;9357;49.900;8.208;2024-03-29T02:47:00;5.60;;;1.90;;
18455;SDS011;9357;49.900;8.208;2024-03-29T02:48:31;3.28;;;2.13;;
18455;SDS011;9357;49.900;8.208;2024-03-29T02:50:02;3.63;;;1.70;;
18455;SDS011;9357;49.900;8.208;2024-03-29T02:51:34;5.97;;;1.95;;
18455;SDS011;9357;49.900;8.208;2024-03-29T02:53:05;3.53;;;1.80;;
18455;SDS011;9357;49.900;8.208;2024-03-29T02:54:38;3.70;;;1.80;;
18455;SDS011;9357;49.900;8.208;2024-03-29T02:56:09;2.35;;;1.92;;
18455;SDS011;9357;49.900;8.208;2024-03-29T02:57:41;2.33;;;1.70;;
18455;SDS011;9357;49.900;8.208;2024-03-29T02:59:12;1.93;;;1.80;;
18455;SDS011;9357;49.900;8.208;2024-03-29T03:00:43;2.33;;;1.73;;
18455;SDS011;9357;49.900;8.208;2024-03-29T03:02:15;1.63;;;1.30;;
18455;SDS011;9357;49.900;8.208;2024-03-29T03:03:46;1.60;;;1.50;;
18455;SDS011;9357;49.900;8.208;2024-03-29T03:05:18;2.10;;;1.80;;
18455;SDS011;9357;49.900;8.208;2024-03-29T03:06:49;5.07;;;1.70;;
18455;SDS011;9357;49.900;8.208;2024-03-29T03:08:19;3.03;;;1.73;;
18455;SDS011;9357;49.900;8.208;2024-03-29T03:10:11;5.70;;;1.58;;
18455;SDS011;9357;49.900;8.208;2024-03-29T03:12:00;1.73;;;1.40;;
18455;SDS011;9357;49.900;8.208;2024-03-29T03:13:32;5.88;;;1.65;;
18455;SDS011;9357;49.900;8.208;2024-03-29T03:15:03;2.17;;;1.60;;
18455;SDS011;9357;49.900;8.208;2024-03-29T03:16:35;3.17;;;1.50;;
18455;SDS011;9357;49.900;8.208;2024-03-29T03:18:06;3.50;;;1.90;;
18455;SDS011;9357;49.900;8.208;2024-03-29T03:19:38;2.25;;;1.50;;
18455;SDS011;9357;49.900;8.208;2024-03-29T03:21:09;2.33;;;1.60;;
18455;SDS011;9357;49.900;8.208;2024-03-29T03:22:40;2.47;;;1.87;;
18455;SDS011;9357;49.900;8.208;2024-03-29T03:24:12;2.42;;;1.50;;
18455;SDS011;9357;49.900;8.208;2024-03-29T03:25:44;3.17;;;1.70;;
18455;SDS011;9357;49.900;8.208;2024-03-29T03:27:15;4.30;;;1.90;;
18455;SDS011;9357;49.900;8.208;2024-03-29T03:28:47;2.33;;;1.30;;
18455;SDS011;9357;49.900;8.208;2024-03-29T03:30:18;2.87;;;1.40;;
18455;SDS011;9357;49.900;8.208;2024-03-29T03:31:50;3.47;;;1.50;;
18455;SDS011;9357;49.900;8.208;2024-03-29T03:33:21;3.50;;;1.70;;
18455;SDS011;9357;49.900;8.208;2024-03-29T03:34:52;3.17;;;1.55;;
18455;SDS011;9357;49.900;8.208;2024-03-29T03:36:24;2.63;;;1.70;;
18455;SDS011;9357;49.900;8.208;2024-03-29T03:37:55;2.17;;;1.80;;
18455;SDS011;9357;49.900;8.208;2024-03-29T03:39:26;2.83;;;1.35;;
18455;SDS011;9357;49.900;8.208;2024-03-29T03:40:59;4.15;;;1.45;;
18455;SDS011;9357;49.900;8.208;2024-03-29T03:42:31;3.15;;;1.45;;
18455;SDS011;9357;49.900;8.208;2024-03-29T03:44:01;3.97;;;1.37;;
18455;SDS011;9357;49.900;8.208;2024-03-29T03:45:34;2.35;;;1.40;;
18455;SDS011;9357;49.900;8.208;2024-03-29T03:47:05;2.13;;;1.40;;
18455;SDS011;9357;49.900;8.208;2024-03-29T03:48:36;2.00;;;1.30;;
18455;SDS011;9357;49.900;8.208;2024-03-29T03:50:08;1.77;;;1.30;;
18455;SDS011;9357;49.900;8.208;2024-03-29T03:51:39;2.53;;;1.40;;
18455;SDS011;9357;49.900;8.208;2024-03-29T03:53:10;2.90;;;1.30;;
18455;SDS011;9357;49.900;8.208;2024-03-29T03:54:42;2.95;;;1.52;;
18455;SDS011;9357;49.900;8.208;2024-03-29T03:56:15;1.97;;;1.27;;
18455;SDS011;9357;49.900;8.208;2024-03-29T03:57:46;3.33;;;1.30;;
18455;SDS011;9357;49.900;8.208;2024-03-29T03:59:18;2.03;;;1.27;;
18455;SDS011;9357;49.900;8.208;2024-03-29T04:00:49;1.37;;;1.20;;
18455;SDS011;9357;49.900;8.208;2024-03-29T04:02:20;1.83;;;1.40;;
18455;SDS011;9357;49.900;8.208;2024-03-29T04:03:51;2.58;;;1.25;;
18455;SDS011;9357;49.900;8.208;2024-03-29T04:05:22;2.50;;;1.47;;
18455;SDS011;9357;49.900;8.208;2024-03-29T04:06:55;2.03;;;1.30;;
18455;SDS011;9357;49.900;8.208;2024-03-29T04:08:26;2.65;;;1.50;;
18455;SDS011;9357;49.900;8.208;2024-03-29T04:09:57;2.87;;;1.70;;
18455;SDS011;9357;49.900;8.208;2024-03-29T04:11:29;1.40;;;1.30;;
18455;SDS011;9357;49.900;8.208;2024-03-29T04:13:03;2.42;;;1.40;;
18455;SDS011;9357;49.900;8.208;2024-03-29T04:14:34;1.80;;;1.52;;
18455;SDS011;9357;49.900;8.208;2024-03-29T04:16:06;3.90;;;1.40;;
18455;SDS011;9357;49.900;8.208;2024-03-29T04:17:37;3.92;;;1.38;;
18455;SDS011;9357;49.900;8.208;2024-03-29T04:19:08;1.70;;;1.60;;
18455;SDS011;9357;49.900;8.208;2024-03-29T04:20:40;1.75;;;1.40;;
18455;SDS011;9357;49.900;8.208;2024-03-29T04:22:11;3.13;;;1.43;;
18455;SDS011;9357;49.900;8.208;2024-03-29T04:23:41;4.20;;;1.60;;
18455;SDS011;9357;49.900;8.208;2024-03-29T04:25:13;3.25;;;1.50;;
18455;SDS011;9357;49.900;8.208;2024-03-29T04:26:46;3.72;;;1.50;;
18455;SDS011;9357;49.900;8.208;2024-03-29T04:28:17;1.55;;;1.40;;
18455;SDS011;9357;49.900;8.208;2024-03-29T04:29:50;2.65;;;1.75;;
18455;SDS011;9357;49.900;8.208;2024-03-29T04:31:21;1.38;;;1.27;;
18455;SDS011;9357;49.900;8.208;2024-03-29T04:32:52;2.00;;;1.30;;
18455;SDS011;9357;49.900;8.208;2024-03-29T04:34:24;3.72;;;1.30;;
18455;SDS011;9357;49.900;8.208;2024-03-29T04:35:56;2.07;;;1.43;;
18455;SDS011;9357;49.900;8.208;2024-03-29T04:37:27;6.00;;;1.42;;
18455;SDS011;9357;49.900;8.208;2024-03-29T04:38:59;2.60;;;1.30;;
18455;SDS011;9357;49.900;8.208;2024-03-29T04:40:30;1.80;;;1.23;;
18455;SDS011;9357;49.900;8.208;2024-03-29T04:42:03;2.30;;;1.40;;
18455;SDS011;9357;49.900;8.208;2024-03-29T04:43:34;1.30;;;1.20;;
18455;SDS011;9357;49.900;8.208;2024-03-29T04:45:06;2.72;;;1.48;;
18455;SDS011;9357;49.900;8.208;2024-03-29T04:46:37;1.50;;;1.27;;
18455;SDS011;9357;49.900;8.208;2024-03-29T04:48:09;2.88;;;1.38;;
18455;SDS011;9357;49.900;8.208;2024-03-29T04:49:40;1.65;;;1.52;;
18455;SDS011;9357;49.900;8.208;2024-03-29T04:51:12;2.22;;;1.30;;
18455;SDS011;9357;49.900;8.208;2024-03-29T04:52:43;2.27;;;1.50;;
18455;SDS011;9357;49.900;8.208;2024-03-29T04:54:15;1.88;;;1.25;;
18455;SDS011;9357;49.900;8.208;2024-03-29T04:55:48;3.35;;;1.40;;
18455;SDS011;9357;49.900;8.208;2024-03-29T04:57:26;1.75;;;1.40;;
18455;SDS011;9357;49.900;8.208;2024-03-29T04:58:57;3.58;;;1.42;;
18455;SDS011;9357;49.900;8.208;2024-03-29T05:00:29;2.20;;;1.13;;
18455;SDS011;9357;49.900;8.208;2024-03-29T05:02:00;3.37;;;1.40;;
18455;SDS011;9357;49.900;8.208;2024-03-29T05:03:33;1.33;;;1.10;;
18455;SDS011;9357;49.900;8.208;2024-03-29T05:05:04;1.80;;;1.10;;
18455;SDS011;9357;49.900;8.208;2024-03-29T05:06:36;3.85;;;1.58;;
18455;SDS011;9357;49.900;8.208;2024-03-29T05:08:06;2.40;;;1.30;;
18455;SDS011;9357;49.900;8.208;2024-03-29T05:09:38;5.55;;;1.52;;
18455;SDS011;9357;49.900;8.208;2024-03-29T05:11:09;1.87;;;1.30;;
18455;SDS011;9357;49.900;8.208;2024-03-29T05:12:45;1.67;;;1.40;;
18455;SDS011;9357;49.900;8.208;2024-03-29T05:14:17;3.30;;;1.65;;
18455;SDS011;9357;49.900;8.208;2024-03-29T05:15:49;1.55;;;1.30;;
18455;SDS011;9357;49.900;8.208;2024-03-29T05:17:21;1.38;;;1.10;;
18455;SDS011;9357;49.900;8.208;2024-03-29T05:18:56;4.10;;;1.63;;
18455;SDS011;9357;49.900;8.208;2024-03-29T05:20:26;2.28;;;1.40;;
18455;SDS011;9357;49.900;8.208;2024-03-29T05:21:58;1.33;;;1.20;;
18455;SDS011;9357;49.900;8.208;2024-03-29T05:23:31;2.22;;;1.42;;
18455;SDS011;9357;49.900;8.208;2024-03-29T05:25:01;3.77;;;1.40;;
18455;SDS011;9357;49.900;8.208;2024-03-29T05:26:34;5.18;;;1.80;;
18455;SDS011;9357;49.900;8.208;2024-03-29T05:28:06;2.08;;;1.40;;
18455;SDS011;9357;49.900;8.208;2024-03-29T05:29:39;1.30;;;1.20;;
18455;SDS011;9357;49.900;8.208;2024-03-29T05:31:11;2.10;;;1.50;;
18455;SDS011;9357;49.900;8.208;2024-03-29T05:32:44;2.05;;;1.42;;
18455;SDS011;9357;49.900;8.208;2024-03-29T05:34:15;4.03;;;1.70;;
18455;SDS011;9357;49.900;8.208;2024-03-29T05:35:47;2.85;;;1.55;;
18455;SDS011;9357;49.900;8.208;2024-03-29T05:37:18;2.30;;;1.90;;
18455;SDS011;9357;49.900;8.208;2024-03-29T05:38:49;2.85;;;1.40;;
18455;SDS011;9357;49.900;8.208;2024-03-29T05:40:21;2.92;;;1.50;;
18455;SDS011;9357;49.900;8.208;2024-03-29T05:41:55;1.77;;;1.42;;
18455;SDS011;9357;49.900;8.208;2024-03-29T05:43:29;2.83;;;1.48;;
18455;SDS011;9357;49.900;8.208;2024-03-29T05:45:00;2.08;;;1.30;;
18455;SDS011;9357;49.900;8.208;2024-03-29T05:46:32;1.80;;;1.50;;
18455;SDS011;9357;49.900;8.208;2024-03-29T05:48:03;2.57;;;1.40;;
18455;SDS011;9357;49.900;8.208;2024-03-29T05:49:35;2.45;;;1.50;;
18455;SDS011;9357;49.900;8.208;2024-03-29T05:51:07;2.53;;;1.30;;
18455;SDS011;9357;49.900;8.208;2024-03-29T05:52:38;2.20;;;1.40;;
18455;SDS011;9357;49.900;8.208;2024-03-29T05:54:09;2.43;;;1.40;;
18455;SDS011;9357;49.900;8.208;2024-03-29T05:55:41;2.05;;;1.40;;
18455;SDS011;9357;49.900;8.208;2024-03-29T05:57:12;3.53;;;1.53;;
18455;SDS011;9357;49.900;8.208;2024-03-29T05:58:45;2.63;;;1.30;;
18455;SDS011;9357;49.900;8.208;2024-03-29T06:00:16;2.53;;;1.20;;
18455;SDS011;9357;49.900;8.208;2024-03-29T06:01:48;3.33;;;1.60;;
18455;SDS011;9357;49.900;8.208;2024-03-29T06:03:19;1.30;;;1.20;;
18455;SDS011;9357;49.900;8.208;2024-03-29T06:04:51;1.50;;;1.40;;
18455;SDS011;9357;49.900;8.208;2024-03-29T06:06:22;2.33;;;1.20;;
18455;SDS011;9357;49.900;8.208;2024-03-29T06:07:54;1.20;;;1.10;;
18455;SDS011;9357;49.900;8.208;2024-03-29T06:09:25;1.60;;;1.20;;
18455;SDS011;9357;49.900;8.208;2024-03-29T06:10:57;1.73;;;1.50;;
18455;SDS011;9357;49.900;8.208;2024-03-29T06:12:29;2.60;;;1.40;;
18455;SDS011;9357;49.900;8.208;2024-03-29T06:14:02;3.10;;;1.58;;
18455;SDS011;9357;49.900;8.208;2024-03-29T06:15:51;2.65;;;1.65;;
18455;SDS011;9357;49.900;8.208;2024-03-29T06:17:41;2.75;;;1.50;;
18455;SDS011;9357;49.900;8.208;2024-03-29T06:19:15;2.25;;;1.55;;
18455;SDS011;9357;49.900;8.208;2024-03-29T06:20:46;3.30;;;1.52;;
18455;SDS011;9357;49.900;8.208;2024-03-29T06:22:18;3.33;;;1.50;;
18455;SDS011;9357;49.900;8.208;2024-03-29T06:23:49;2.90;;;1.40;;
18455;SDS011;9357;49.900;8.208;2024-03-29T06:25:21;2.55;;;1.48;;
18455;SDS011;9357;49.900;8.208;2024-03-29T06:26:51;2.27;;;1.20;;
18455;SDS011;9357;49.900;8.208;2024-03-29T06:28:24;2.15;;;1.42;;
18455;SDS011;9357;49.900;8.208;2024-03-29T06:29:56;3.13;;;1.40;;
18455;SDS011;9357;49.900;8.208;2024-03-29T06:31:28;1.63;;;1.35;;
18455;SDS011;9357;49.900;8.208;2024-03-29T06:32:59;2.78;;;1.25;;
18455;SDS011;9357;49.900;8.208;2024-03-29T06:34:32;1.52;;;1.40;;
18455;SDS011;9357;49.900;8.208;2024-03-29T06:36:04;2.70;;;1.30;;
18455;SDS011;9357;49.900;8.208;2024-03-29T06:37:37;3.58;;;1.55;;
18455;SDS011;9357;49.900;8.208;2024-03-29T06:39:09;1.63;;;1.40;;
18455;SDS011;9357;49.900;8.208;2024-03-29T06:40:40;4.13;;;1.50;;
18455;SDS011;9357;49.900;8.208;2024-03-29T06:42:13;3.25;;;1.65;;
18455;SDS011;9357;49.900;8.208;2024-03-29T06:43:44;6.57;;;1.40;;
18455;SDS011;9357;49.900;8.208;2024-03-29T06:45:17;1.77;;;1.40;;
18455;SDS011;9357;49.900;8.208;2024-03-29T06:46:48;1.88;;;1.50;;
18455;SDS011;9357;49.900;8.208;2024-03-29T06:48:20;4.30;;;1.50;;
18455;SDS011;9357;49.900;8.208;2024-03-29T06:49:51;1.40;;;1.27;;
18455;SDS011;9357;49.900;8.208;2024-03-29T06:51:23;2.47;;;1.40;;
18455;SDS011;9357;49.900;8.208;2024-03-29T06:52:54;2.23;;;1.30;;
18455;SDS011;9357;49.900;8.208;2024-03-29T06:54:25;2.05;;;1.50;;
18455;SDS011;9357;49.900;8.208;2024-03-29T06:55:59;2.85;;;1.60;;
18455;SDS011;9357;49.900;8.208;2024-03-29T06:57:31;1.55;;;1.40;;
18455;SDS011;9357;49.900;8.208;2024-03-29T06:59:03;1.65;;;1.38;;
18455;SDS011;9357;49.900;8.208;2024-03-29T07:00:36;1.48;;;1.30;;
18455;SDS011;9357;49.900;8.208;2024-03-29T07:02:07;1.98;;;1.50;;
18455;SDS011;9357;49.900;8.208;2024-03-29T07:03:40;2.85;;;1.40;;
18455;SDS011;9357;49.900;8.208;2024-03-29T07:05:11;2.90;;;1.38;;
18455;SDS011;9357;49.900;8.208;2024-03-29T07:06:43;1.17;;;1.08;;
18455;SDS011;9357;49.900;8.208;2024-03-29T07:08:17;2.78;;;1.30;;
18455;SDS011;9357;49.900;8.208;2024-03-29T07:09:49;2.83;;;1.40;;
18455;SDS011;9357;49.900;8.208;2024-03-29T07:11:20;1.47;;;1.13;;
18455;SDS011;9357;49.900;8.208;2024-03-29T07:12:52;1.85;;;1.40;;
18455;SDS011;9357;49.900;8.208;2024-03-29T07:14:23;1.20;;;1.10;;
18455;SDS011;9357;49.900;8.208;2024-03-29T07:15:58;1.55;;;1.15;;
18455;SDS011;9357;49.900;8.208;2024-03-29T07:17:29;1.75;;;1.10;;
18455;SDS011;9357;49.900;8.208;2024-03-29T07:19:01;1.58;;;1.15;;
18455;SDS011;9357;49.900;8.208;2024-03-29T07:20:33;2.08;;;1.38;;
18455;SDS011;9357;49.900;8.208;2024-03-29T07:22:05;1.67;;;1.20;;
18455;SDS011;9357;49.900;8.208;2024-03-29T07:23:35;1.83;;;1.10;;
18455;SDS011;9357;49.900;8.208;2024-03-29T07:25:07;2.50;;;1.20;;
18455;SDS011;9357;49.900;8.208;2024-03-29T07:26:39;1.20;;;1.10;;
18455;SDS011;9357;49.900;8.208;2024-03-29T07:28:11;1.65;;;1.20;;
18455;SDS011;9357;49.900;8.208;2024-03-29T07:29:44;1.10;;;1.00;;
18455;SDS011;9357;49.900;8.208;2024-03-29T07:31:18;2.45;;;0.95;;
18455;SDS011;9357;49.900;8.208;2024-03-29T07:32:49;1.88;;;1.33;;
18455;SDS011;9357;49.900;8.208;2024-03-29T07:34:20;1.17;;;1.07;;
18455;SDS011;9357;49.900;8.208;2024-03-29T07:35:52;1.10;;;1.00;;
18455;SDS011;9357;49.900;8.208;2024-03-29T07:37:23;1.10;;;1.00;;
18455;SDS011;9357;49.900;8.208;2024-03-29T07:38:55;1.60;;;0.90;;
18455;SDS011;9357;49.900;8.208;2024-03-29T07:40:26;0.90;;;0.90;;
18455;SDS011;9357;49.900;8.208;2024-03-29T07:41:58;1.98;;;1.00;;
18455;SDS011;9357;49.900;8.208;2024-03-29T07:43:36;1.50;;;0.90;;
18455;SDS011;9357;49.900;8.208;2024-03-29T07:45:08;0.80;;;0.70;;
18455;SDS011;9357;49.900;8.208;2024-03-29T07:46:42;2.22;;;1.00;;
18455;SDS011;9357;49.900;8.208;2024-03-29T07:48:16;2.22;;;1.10;;
18455;SDS011;9357;49.900;8.208;2024-03-29T07:49:48;1.13;;;0.90;;
18455;SDS011;9357;49.900;8.208;2024-03-29T07:51:20;1.00;;;0.82;;
18455;SDS011;9357;49.900;8.208;2024-03-29T07:52:51;0.90;;;0.90;;
18455;SDS011;9357;49.900;8.208;2024-03-29T07:54:22;1.02;;;1.00;;
18455;SDS011;9357;49.900;8.208;2024-03-29T07:55:54;1.70;;;0.95;;
18455;SDS011;9357;49.900;8.208;2024-03-29T07:57:25;1.00;;;0.90;;
18455;SDS011;9357;49.900;8.208;2024-03-29T07:58:57;1.23;;;1.00;;
18455;SDS011;9357;49.900;8.208;2024-03-29T08:00:30;1.05;;;0.90;;
18455;SDS011;9357;49.900;8.208;2024-03-29T08:02:03;1.33;;;1.00;;
18455;SDS011;9357;49.900;8.208;2024-03-29T08:03:35;1.90;;;1.15;;
18455;SDS011;9357;49.900;8.208;2024-03-29T08:05:07;1.25;;;0.90;;
18455;SDS011;9357;49.900;8.208;2024-03-29T08:06:39;1.80;;;1.00;;
18455;SDS011;9357;49.900;8.208;2024-03-29T08:08:09;1.87;;;1.10;;
18455;SDS011;9357;49.900;8.208;2024-03-29T08:09:41;1.13;;;1.00;;
18455;SDS011;9357;49.900;8.208;2024-03-29T08:11:12;1.70;;;1.10;;
18455;SDS011;9357;49.900;8.208;2024-03-29T08:12:44;1.58;;;0.93;;
18455;SDS011;9357;49.900;8.208;2024-03-29T08:14:15;1.63;;;1.00;;
18455;SDS011;9357;49.900;8.208;2024-03-29T08:15:47;2.20;;;1.10;;
18455;SDS011;9357;49.900;8.208;2024-03-29T08:17:19;1.42;;;0.80;;
18455;SDS011;9357;49.900;8.208;2024-03-29T08:18:51;2.95;;;1.20;;
18455;SDS011;9357;49.900;8.208;2024-03-29T08:20:22;1.23;;;1.10;;
18455;SDS011;9357;49.900;8.208;2024-03-29T08:21:59;1.45;;;1.35;;
18455;SDS011;9357;49.900;8.208;2024-03-29T08:23:31;1.73;;;1.17;;
18455;SDS011;9357;49.900;8.208;2024-03-29T08:25:03;1.47;;;1.20;;
18455;SDS011;9357;49.900;8.208;2024-03-29T08:26:34;2.22;;;1.08;;
18455;SDS011;9357;49.900;8.208;2024-03-29T08:28:06;1.20;;;1.10;;
18455;SDS011;9357;49.900;8.208;2024-03-29T08:29:36;1.00;;;1.00;;
18455;SDS011;9357;49.900;8.208;2024-03-29T08:31:08;1.58;;;0.90;;
18455;SDS011;9357;49.900;8.208;2024-03-29T08:32:41;1.47;;;1.10;;
18455;SDS011;9357;49.900;8.208;2024-03-29T08:34:12;3.47;;;1.10;;
18455;SDS011;9357;49.900;8.208;2024-03-29T08:35:45;2.33;;;1.03;;
18455;SDS011;9357;49.900;8.208;2024-03-29T08:37:17;1.83;;;1.00;;
18455;SDS011;9357;49.900;8.208;2024-03-29T08:38:47;1.90;;;1.10;;
18455;SDS011;9357;49.900;8.208;2024-03-29T08:40:19;1.85;;;1.17;;
18455;SDS011;9357;49.900;8.208;2024-03-29T08:41:50;3.13;;;1.20;;
18455;SDS011;9357;49.900;8.208;2024-03-29T08:43:22;1.10;;;1.00;;
18455;SDS011;9357;49.900;8.208;2024-03-29T08:44:53;1.43;;;1.03;;
18455;SDS011;9357;49.900;8.208;2024-03-29T08:46:25;3.00;;;1.13;;
18455;SDS011;9357;49.900;8.208;2024-03-29T08:47:57;3.67;;;1.17;;
18455;SDS011;9357;49.900;8.208;2024-03-29T08:49:29;2.72;;;1.40;;
18455;SDS011;9357;49.900;8.208;2024-03-29T08:51:00;1.35;;;1.10;;
18455;SDS011;9357;49.900;8.208;2024-03-29T08:52:32;0.90;;;0.90;;
18455;SDS011;9357;49.900;8.208;2024-03-29T08:54:03;1.73;;;1.30;;
18455;SDS011;9357;49.900;8.208;2024-03-29T08:55:35;2.13;;;1.10;;
18455;SDS011;9357;49.900;8.208;2024-03-29T08:57:06;1.10;;;1.10;;
18455;SDS011;9357;49.900;8.208;2024-03-29T08:58:38;1.07;;;1.00;;
18455;SDS011;9357;49.900;8.208;2024-03-29T09:00:10;1.60;;;1.20;;
18455;SDS011;9357;49.900;8.208;2024-03-29T09:01:44;1.13;;;1.13;;
18455;SDS011;9357;49.900;8.208;2024-03-29T09:03:17;1.30;;;1.10;;
18455;SDS011;9357;49.900;8.208;2024-03-29T09:04:49;1.70;;;1.33;;
18455;SDS011;9357;49.900;8.208;2024-03-29T09:06:20;3.67;;;1.20;;
18455;SDS011;9357;49.900;8.208;2024-03-29T09:07:52;2.33;;;1.40;;
18455;SDS011;9357;49.900;8.208;2024-03-29T09:09:22;1.27;;;1.10;;
18455;SDS011;9357;49.900;8.208;2024-03-29T09:10:54;1.23;;;1.13;;
18455;SDS011;9357;49.900;8.208;2024-03-29T09:12:26;2.28;;;1.35;;
18455;SDS011;9357;49.900;8.208;2024-03-29T09:13:57;2.03;;;1.20;;
18455;SDS011;9357;49.900;8.208;2024-03-29T09:15:29;1.80;;;1.20;;
18455;SDS011;9357;49.900;8.208;2024-03-29T09:17:00;2.77;;;1.40;;
18455;SDS011;9357;49.900;8.208;2024-03-29T09:18:33;1.30;;;1.20;;
18455;SDS011;9357;49.900;8.208;2024-03-29T09:20:04;2.20;;;1.40;;
18455;SDS011;9357;49.900;8.208;2024-03-29T09:21:37;1.73;;;1.50;;